sensor_id;sensor_type;location;lat;lon;timestamp;temperature;humidity
19878;DHT22;10101;52.204;9.910;2022-11-15T00:00:32;5.50;99.90
19878;DHT22;10101;52.204;9.910;2022-11-15T00:02:58;5.50;99.90
19878;DHT22;10101;52.204;9.910;2022-11-15T00:05:25;5.70;99.90
19878;DHT22;10101;52.204;9.910;2022-11-15T00:07:52;5.60;99.90
19878;DHT22;10101;52.204;9.910;2022-11-15T00:10:19;5.60;99.90
19878;DHT22;10101;52.204;9.910;2022-11-15T00:12:46;5.90;99.90
19878;DHT22;10101;52.204;9.910;2022-11-15T00:15:14;6.10;99.90
19878;DHT22;10101;52.204;9.910;2022-11-15T00:17:40;6.20;99.90
19878;DHT22;10101;52.204;9.910;2022-11-15T00:20:08;6.20;99.90
19878;DHT22;10101;52.204;9.910;2022-11-15T00:22:35;6.30;99.90
19878;DHT22;10101;52.204;9.910;2022-11-15T00:25:02;6.40;99.90
19878;DHT22;10101;52.204;9.910;2022-11-15T00:27:29;6.50;99.90
19878;DHT22;10101;52.204;9.910;2022-11-15T00:29:56;6.60;99.90
19878;DHT22;10101;52.204;9.910;2022-11-15T00:32:24;6.70;99.90
19878;DHT22;10101;52.204;9.910;2022-11-15T00:34:51;6.70;99.90
19878;DHT22;10101;52.204;9.910;2022-11-15T00:37:17;6.80;99.90
19878;DHT22;10101;52.204;9.910;2022-11-15T00:39:44;6.90;99.90
19878;DHT22;10101;52.204;9.910;2022-11-15T00:42:11;7.00;99.90
19878;DHT22;10101;52.204;9.910;2022-11-15T00:44:37;7.00;99.90
19878;DHT22;10101;52.204;9.910;2022-11-15T00:47:04;7.00;99.90
19878;DHT22;10101;52.204;9.910;2022-11-15T00:49:32;7.10;99.90
19878;DHT22;10101;52.204;9.910;2022-11-15T00:51:59;6.80;99.90
19878;DHT22;10101;52.204;9.910;2022-11-15T00:54:26;6.80;99.90
19878;DHT22;10101;52.204;9.910;2022-11-15T00:56:52;6.80;99.90
19878;DHT22;10101;52.204;9.910;2022-11-15T00:59:19;6.80;99.90
19878;DHT22;10101;52.204;9.910;2022-11-15T01:01:46;7.00;99.90
19878;DHT22;10101;52.204;9.910;2022-11-15T01:04:13;7.00;99.90
19878;DHT22;10101;52.204;9.910;2022-11-15T01:06:41;7.10;99.90
19878;DHT22;10101;52.204;9.910;2022-11-15T01:09:08;7.10;99.90
19878;DHT22;10101;52.204;9.910;2022-11-15T01:11:35;7.20;99.90
19878;DHT22;10101;52.204;9.910;2022-11-15T01:14:02;7.40;99.90
19878;DHT22;10101;52.204;9.910;2022-11-15T01:16:29;7.40;99.90
19878;DHT22;10101;52.204;9.910;2022-11-15T01:18:55;7.50;99.90
19878;DHT22;10101;52.204;9.910;2022-11-15T01:21:22;7.80;99.90
19878;DHT22;10101;52.204;9.910;2022-11-15T01:23:53;7.80;99.90
19878;DHT22;10101;52.204;9.910;2022-11-15T01:26:21;7.70;99.90
19878;DHT22;10101;52.204;9.910;2022-11-15T01:28:48;7.90;99.90
19878;DHT22;10101;52.204;9.910;2022-11-15T01:31:16;8.00;99.90
19878;DHT22;10101;52.204;9.910;2022-11-15T01:33:44;8.20;99.90
19878;DHT22;10101;52.204;9.910;2022-11-15T01:36:14;8.30;99.90
19878;DHT22;10101;52.204;9.910;2022-11-15T01:38:40;8.30;99.90
19878;DHT22;10101;52.204;9.910;2022-11-15T01:41:15;8.10;99.90
19878;DHT22;10101;52.204;9.910;2022-11-15T01:43:41;8.40;99.90
19878;DHT22;10101;52.204;9.910;2022-11-15T01:46:22;8.20;99.90
19878;DHT22;10101;52.204;9.910;2022-11-15T01:48:51;8.20;99.90
19878;DHT22;10101;52.204;9.910;2022-11-15T01:51:21;8.30;99.90
19878;DHT22;10101;52.204;9.910;2022-11-15T01:53:52;8.20;99.90
19878;DHT22;10101;52.204;9.910;2022-11-15T01:56:25;8.20;99.90
19878;DHT22;10101;52.204;9.910;2022-11-15T01:58:56;8.20;99.90
19878;DHT22;10101;52.204;9.910;2022-11-15T02:01:24;8.30;99.90
19878;DHT22;10101;52.204;9.910;2022-11-15T02:03:55;8.30;99.90
19878;DHT22;10101;52.204;9.910;2022-11-15T02:06:23;8.20;99.90
19878;DHT22;10101;52.204;9.910;2022-11-15T02:08:50;8.20;99.90
19878;DHT22;10101;52.204;9.910;2022-11-15T02:11:18;8.40;99.90
19878;DHT22;10101;52.204;9.910;2022-11-15T02:13:46;8.40;99.90
19878;DHT22;10101;52.204;9.910;2022-11-15T02:16:19;8.40;99.90
19878;DHT22;10101;52.204;9.910;2022-11-15T02:18:54;8.50;99.90
19878;DHT22;10101;52.204;9.910;2022-11-15T02:21:28;8.60;99.90
19878;DHT22;10101;52.204;9.910;2022-11-15T02:24:42;8.70;99.90
19878;DHT22;10101;52.204;9.910;2022-11-15T02:30:24;9.00;99.90
19878;DHT22;10101;52.204;9.910;2022-11-15T02:32:57;9.00;99.90
19878;DHT22;10101;52.204;9.910;2022-11-15T02:35:31;9.00;99.90
19878;DHT22;10101;52.204;9.910;2022-11-15T02:38:07;9.00;99.90
19878;DHT22;10101;52.204;9.910;2022-11-15T02:40:40;9.20;99.90
19878;DHT22;10101;52.204;9.910;2022-11-15T02:43:10;9.30;99.90
19878;DHT22;10101;52.204;9.910;2022-11-15T02:46:01;9.30;99.90
19878;DHT22;10101;52.204;9.910;2022-11-15T02:48:30;9.50;99.90
19878;DHT22;10101;52.204;9.910;2022-11-15T02:50:58;9.60;99.90
19878;DHT22;10101;52.204;9.910;2022-11-15T02:53:25;9.40;99.90
19878;DHT22;10101;52.204;9.910;2022-11-15T02:55:53;9.70;99.90
19878;DHT22;10101;52.204;9.910;2022-11-15T02:58:39;9.60;99.90
19878;DHT22;10101;52.204;9.910;2022-11-15T03:01:19;9.80;99.90
19878;DHT22;10101;52.204;9.910;2022-11-15T03:03:59;10.00;99.90
19878;DHT22;10101;52.204;9.910;2022-11-15T03:06:35;10.00;99.90
19878;DHT22;10101;52.204;9.910;2022-11-15T03:09:09;10.10;99.90
19878;DHT22;10101;52.204;9.910;2022-11-15T03:11:41;10.00;99.90
19878;DHT22;10101;52.204;9.910;2022-11-15T03:14:20;9.90;99.90
19878;DHT22;10101;52.204;9.910;2022-11-15T03:16:55;9.90;99.90
19878;DHT22;10101;52.204;9.910;2022-11-15T03:19:30;9.80;99.90
19878;DHT22;10101;52.204;9.910;2022-11-15T03:21:59;9.80;99.90
19878;DHT22;10101;52.204;9.910;2022-11-15T03:24:30;9.60;99.90
19878;DHT22;10101;52.204;9.910;2022-11-15T03:27:00;9.60;99.90
19878;DHT22;10101;52.204;9.910;2022-11-15T03:29:32;9.50;99.90
19878;DHT22;10101;52.204;9.910;2022-11-15T03:32:05;9.40;99.90
19878;DHT22;10101;52.204;9.910;2022-11-15T03:34:38;9.40;99.90
19878;DHT22;10101;52.204;9.910;2022-11-15T03:37:07;9.40;99.90
19878;DHT22;10101;52.204;9.910;2022-11-15T03:39:34;9.40;99.90
19878;DHT22;10101;52.204;9.910;2022-11-15T03:42:09;9.40;99.90
19878;DHT22;10101;52.204;9.910;2022-11-15T03:44:46;9.30;99.90
19878;DHT22;10101;52.204;9.910;2022-11-15T03:47:19;9.30;99.90
19878;DHT22;10101;52.204;9.910;2022-11-15T03:49:52;9.30;99.90
19878;DHT22;10101;52.204;9.910;2022-11-15T03:52:21;9.20;99.90
19878;DHT22;10101;52.204;9.910;2022-11-15T03:54:49;9.30;99.90
19878;DHT22;10101;52.204;9.910;2022-11-15T03:57:17;9.20;99.90
19878;DHT22;10101;52.204;9.910;2022-11-15T03:59:43;9.10;99.90
19878;DHT22;10101;52.204;9.910;2022-11-15T04:02:10;9.00;99.90
19878;DHT22;10101;52.204;9.910;2022-11-15T04:04:38;8.90;99.90
19878;DHT22;10101;52.204;9.910;2022-11-15T04:07:05;8.90;99.90
19878;DHT22;10101;52.204;9.910;2022-11-15T04:09:32;8.90;99.90
19878;DHT22;10101;52.204;9.910;2022-11-15T04:11:59;8.70;99.90
19878;DHT22;10101;52.204;9.910;2022-11-15T04:14:25;8.60;99.90
19878;DHT22;10101;52.204;9.910;2022-11-15T04:16:52;8.60;99.90
19878;DHT22;10101;52.204;9.910;2022-11-15T04:19:19;8.50;99.90
19878;DHT22;10101;52.204;9.910;2022-11-15T04:22:04;8.30;99.90
19878;DHT22;10101;52.204;9.910;2022-11-15T04:24:48;8.40;99.90
19878;DHT22;10101;52.204;9.910;2022-11-15T04:27:15;8.10;99.90
19878;DHT22;10101;52.204;9.910;2022-11-15T04:29:42;8.00;99.90
19878;DHT22;10101;52.204;9.910;2022-11-15T04:32:09;7.80;99.90
19878;DHT22;10101;52.204;9.910;2022-11-15T04:34:35;7.60;99.90
19878;DHT22;10101;52.204;9.910;2022-11-15T04:37:05;7.60;99.90
19878;DHT22;10101;52.204;9.910;2022-11-15T04:39:42;7.60;99.90
19878;DHT22;10101;52.204;9.910;2022-11-15T04:42:09;7.50;99.90
19878;DHT22;10101;52.204;9.910;2022-11-15T04:44:36;7.50;99.90
19878;DHT22;10101;52.204;9.910;2022-11-15T04:47:03;7.40;99.90
19878;DHT22;10101;52.204;9.910;2022-11-15T04:49:30;7.40;99.90
19878;DHT22;10101;52.204;9.910;2022-11-15T04:51:57;7.40;99.90
19878;DHT22;10101;52.204;9.910;2022-11-15T04:54:25;7.50;99.90
19878;DHT22;10101;52.204;9.910;2022-11-15T04:56:51;7.50;99.90
19878;DHT22;10101;52.204;9.910;2022-11-15T04:59:18;7.60;99.90
19878;DHT22;10101;52.204;9.910;2022-11-15T05:01:45;7.70;99.90
19878;DHT22;10101;52.204;9.910;2022-11-15T05:04:12;7.70;99.90
19878;DHT22;10101;52.204;9.910;2022-11-15T05:06:50;7.70;99.90
19878;DHT22;10101;52.204;9.910;2022-11-15T05:09:17;7.70;99.90
19878;DHT22;10101;52.204;9.910;2022-11-15T05:11:46;7.70;99.90
19878;DHT22;10101;52.204;9.910;2022-11-15T05:14:13;7.80;99.90
19878;DHT22;10101;52.204;9.910;2022-11-15T05:16:41;7.80;99.90
19878;DHT22;10101;52.204;9.910;2022-11-15T05:19:07;7.90;99.90
19878;DHT22;10101;52.204;9.910;2022-11-15T05:21:34;8.00;99.90
19878;DHT22;10101;52.204;9.910;2022-11-15T05:24:01;8.10;99.90
19878;DHT22;10101;52.204;9.910;2022-11-15T05:26:28;8.10;99.90
19878;DHT22;10101;52.204;9.910;2022-11-15T05:28:58;8.20;99.90
19878;DHT22;10101;52.204;9.910;2022-11-15T05:31:26;8.20;99.90
19878;DHT22;10101;52.204;9.910;2022-11-15T05:33:54;8.20;99.90
19878;DHT22;10101;52.204;9.910;2022-11-15T05:36:27;8.30;99.90
19878;DHT22;10101;52.204;9.910;2022-11-15T05:38:55;8.30;99.90
19878;DHT22;10101;52.204;9.910;2022-11-15T05:41:26;8.20;99.90
19878;DHT22;10101;52.204;9.910;2022-11-15T05:43:58;8.30;99.90
19878;DHT22;10101;52.204;9.910;2022-11-15T05:46:26;8.30;99.90
19878;DHT22;10101;52.204;9.910;2022-11-15T05:48:53;8.40;99.90
19878;DHT22;10101;52.204;9.910;2022-11-15T05:51:22;8.30;99.90
19878;DHT22;10101;52.204;9.910;2022-11-15T05:53:50;8.30;99.90
19878;DHT22;10101;52.204;9.910;2022-11-15T05:56:17;8.30;99.90
19878;DHT22;10101;52.204;9.910;2022-11-15T05:58:44;8.20;99.90
19878;DHT22;10101;52.204;9.910;2022-11-15T06:01:12;8.10;99.90
19878;DHT22;10101;52.204;9.910;2022-11-15T06:03:39;8.00;99.90
19878;DHT22;10101;52.204;9.910;2022-11-15T06:06:06;8.00;99.90
19878;DHT22;10101;52.204;9.910;2022-11-15T06:08:32;8.10;99.90
19878;DHT22;10101;52.204;9.910;2022-11-15T06:11:04;8.00;99.90
19878;DHT22;10101;52.204;9.910;2022-11-15T06:13:31;8.30;99.90
19878;DHT22;10101;52.204;9.910;2022-11-15T06:15:58;8.40;99.90
19878;DHT22;10101;52.204;9.910;2022-11-15T06:18:26;8.40;99.90
19878;DHT22;10101;52.204;9.910;2022-11-15T06:20:53;8.40;99.90
19878;DHT22;10101;52.204;9.910;2022-11-15T06:23:20;8.30;99.90
19878;DHT22;10101;52.204;9.910;2022-11-15T06:25:46;8.30;99.90
19878;DHT22;10101;52.204;9.910;2022-11-15T06:28:13;8.40;99.90
19878;DHT22;10101;52.204;9.910;2022-11-15T06:30:40;8.40;99.90
19878;DHT22;10101;52.204;9.910;2022-11-15T06:33:07;8.50;99.90
19878;DHT22;10101;52.204;9.910;2022-11-15T06:35:36;8.50;99.90
19878;DHT22;10101;52.204;9.910;2022-11-15T06:38:04;8.50;99.90
19878;DHT22;10101;52.204;9.910;2022-11-15T06:40:33;8.40;99.90
19878;DHT22;10101;52.204;9.910;2022-11-15T06:43:00;8.40;99.90
19878;DHT22;10101;52.204;9.910;2022-11-15T06:45:27;8.40;99.90
19878;DHT22;10101;52.204;9.910;2022-11-15T06:47:57;8.30;99.90
19878;DHT22;10101;52.204;9.910;2022-11-15T06:50:24;8.20;99.90
19878;DHT22;10101;52.204;9.910;2022-11-15T06:52:52;8.30;99.90
19878;DHT22;10101;52.204;9.910;2022-11-15T06:55:19;8.20;99.90
19878;DHT22;10101;52.204;9.910;2022-11-15T06:57:47;8.10;99.90
19878;DHT22;10101;52.204;9.910;2022-11-15T07:00:15;8.10;99.90
19878;DHT22;10101;52.204;9.910;2022-11-15T07:02:42;8.20;99.90
19878;DHT22;10101;52.204;9.910;2022-11-15T07:05:09;8.30;99.90
19878;DHT22;10101;52.204;9.910;2022-11-15T07:07:36;8.20;99.90
19878;DHT22;10101;52.204;9.910;2022-11-15T07:10:05;8.20;99.90
19878;DHT22;10101;52.204;9.910;2022-11-15T07:12:32;8.30;99.90
19878;DHT22;10101;52.204;9.910;2022-11-15T07:14:59;8.20;99.90
19878;DHT22;10101;52.204;9.910;2022-11-15T07:17:26;8.20;99.90
19878;DHT22;10101;52.204;9.910;2022-11-15T07:19:53;8.10;99.90
19878;DHT22;10101;52.204;9.910;2022-11-15T07:22:19;8.20;99.90
19878;DHT22;10101;52.204;9.910;2022-11-15T07:24:46;8.20;99.90
19878;DHT22;10101;52.204;9.910;2022-11-15T07:27:14;8.20;99.90
19878;DHT22;10101;52.204;9.910;2022-11-15T07:29:41;8.30;99.90
19878;DHT22;10101;52.204;9.910;2022-11-15T07:32:07;8.30;99.90
19878;DHT22;10101;52.204;9.910;2022-11-15T07:34:35;8.30;99.90
19878;DHT22;10101;52.204;9.910;2022-11-15T07:37:02;8.30;99.90
19878;DHT22;10101;52.204;9.910;2022-11-15T07:39:28;8.40;99.90
19878;DHT22;10101;52.204;9.910;2022-11-15T07:41:55;8.40;99.90
19878;DHT22;10101;52.204;9.910;2022-11-15T07:44:48;8.50;99.90
19878;DHT22;10101;52.204;9.910;2022-11-15T07:47:15;8.50;99.90
19878;DHT22;10101;52.204;9.910;2022-11-15T07:49:41;8.50;99.90
19878;DHT22;10101;52.204;9.910;2022-11-15T07:52:08;8.50;99.90
19878;DHT22;10101;52.204;9.910;2022-11-15T07:54:35;8.50;99.90
19878;DHT22;10101;52.204;9.910;2022-11-15T07:57:02;8.50;99.90
19878;DHT22;10101;52.204;9.910;2022-11-15T07:59:28;8.50;99.90
19878;DHT22;10101;52.204;9.910;2022-11-15T08:01:56;8.60;99.90
19878;DHT22;10101;52.204;9.910;2022-11-15T08:04:23;8.70;99.90
19878;DHT22;10101;52.204;9.910;2022-11-15T08:06:50;8.70;99.90
19878;DHT22;10101;52.204;9.910;2022-11-15T08:09:16;8.80;99.90
19878;DHT22;10101;52.204;9.910;2022-11-15T08:11:43;8.80;99.90
19878;DHT22;10101;52.204;9.910;2022-11-15T08:14:10;8.90;99.90
19878;DHT22;10101;52.204;9.910;2022-11-15T08:16:36;8.80;99.90
19878;DHT22;10101;52.204;9.910;2022-11-15T08:19:04;8.90;99.90
19878;DHT22;10101;52.204;9.910;2022-11-15T08:21:31;8.90;99.90
19878;DHT22;10101;52.204;9.910;2022-11-15T08:23:58;9.10;99.90
19878;DHT22;10101;52.204;9.910;2022-11-15T08:26:25;9.00;99.90
19878;DHT22;10101;52.204;9.910;2022-11-15T08:28:54;9.10;99.90
19878;DHT22;10101;52.204;9.910;2022-11-15T08:31:21;9.30;99.90
19878;DHT22;10101;52.204;9.910;2022-11-15T08:33:48;9.50;99.90
19878;DHT22;10101;52.204;9.910;2022-11-15T08:36:16;9.60;99.90
19878;DHT22;10101;52.204;9.910;2022-11-15T08:38:43;9.60;99.90
19878;DHT22;10101;52.204;9.910;2022-11-15T08:41:13;9.70;99.90
19878;DHT22;10101;52.204;9.910;2022-11-15T08:43:40;9.80;99.90
19878;DHT22;10101;52.204;9.910;2022-11-15T08:46:09;9.80;99.90
19878;DHT22;10101;52.204;9.910;2022-11-15T08:48:37;9.90;99.90
19878;DHT22;10101;52.204;9.910;2022-11-15T08:51:04;10.00;99.90
19878;DHT22;10101;52.204;9.910;2022-11-15T08:53:33;10.20;99.90
19878;DHT22;10101;52.204;9.910;2022-11-15T08:56:00;10.40;99.90
19878;DHT22;10101;52.204;9.910;2022-11-15T08:58:27;10.60;99.90
19878;DHT22;10101;52.204;9.910;2022-11-15T09:00:54;10.60;99.90
19878;DHT22;10101;52.204;9.910;2022-11-15T09:03:21;10.70;99.90
19878;DHT22;10101;52.204;9.910;2022-11-15T09:05:48;10.80;99.90
19878;DHT22;10101;52.204;9.910;2022-11-15T09:08:14;10.90;99.90
19878;DHT22;10101;52.204;9.910;2022-11-15T09:10:42;10.90;99.90
19878;DHT22;10101;52.204;9.910;2022-11-15T09:13:09;11.00;99.90
19878;DHT22;10101;52.204;9.910;2022-11-15T09:15:36;11.10;99.90
19878;DHT22;10101;52.204;9.910;2022-11-15T09:18:02;11.20;99.90
19878;DHT22;10101;52.204;9.910;2022-11-15T09:20:29;11.30;99.90
19878;DHT22;10101;52.204;9.910;2022-11-15T09:22:59;11.30;99.90
19878;DHT22;10101;52.204;9.910;2022-11-15T09:25:26;11.40;99.90
19878;DHT22;10101;52.204;9.910;2022-11-15T09:27:54;11.60;99.90
19878;DHT22;10101;52.204;9.910;2022-11-15T09:30:23;11.50;99.90
19878;DHT22;10101;52.204;9.910;2022-11-15T09:32:50;11.60;99.90
19878;DHT22;10101;52.204;9.910;2022-11-15T09:35:17;11.60;99.90
19878;DHT22;10101;52.204;9.910;2022-11-15T09:37:44;11.70;99.90
19878;DHT22;10101;52.204;9.910;2022-11-15T09:40:13;11.80;99.90
19878;DHT22;10101;52.204;9.910;2022-11-15T09:42:52;11.80;99.90
19878;DHT22;10101;52.204;9.910;2022-11-15T09:45:28;11.90;99.90
19878;DHT22;10101;52.204;9.910;2022-11-15T09:48:26;11.90;99.90
19878;DHT22;10101;52.204;9.910;2022-11-15T09:50:55;12.00;99.90
19878;DHT22;10101;52.204;9.910;2022-11-15T09:53:26;12.10;99.90
19878;DHT22;10101;52.204;9.910;2022-11-15T09:55:58;12.10;99.90
19878;DHT22;10101;52.204;9.910;2022-11-15T09:58:33;12.00;99.90
19878;DHT22;10101;52.204;9.910;2022-11-15T10:01:08;12.20;99.90
19878;DHT22;10101;52.204;9.910;2022-11-15T10:03:40;12.20;99.90
19878;DHT22;10101;52.204;9.910;2022-11-15T10:06:13;12.30;99.90
19878;DHT22;10101;52.204;9.910;2022-11-15T10:08:51;12.30;99.90
19878;DHT22;10101;52.204;9.910;2022-11-15T10:11:21;12.40;99.90
19878;DHT22;10101;52.204;9.910;2022-11-15T10:13:50;12.40;99.90
19878;DHT22;10101;52.204;9.910;2022-11-15T10:16:35;12.40;99.90
19878;DHT22;10101;52.204;9.910;2022-11-15T10:19:12;12.40;99.90
19878;DHT22;10101;52.204;9.910;2022-11-15T10:21:51;12.40;99.90
19878;DHT22;10101;52.204;9.910;2022-11-15T10:24:25;12.40;99.90
19878;DHT22;10101;52.204;9.910;2022-11-15T10:26:54;12.40;99.90
19878;DHT22;10101;52.204;9.910;2022-11-15T10:29:21;12.50;99.90
19878;DHT22;10101;52.204;9.910;2022-11-15T10:31:50;12.50;99.90
19878;DHT22;10101;52.204;9.910;2022-11-15T10:34:18;12.60;99.90
19878;DHT22;10101;52.204;9.910;2022-11-15T10:36:46;12.60;99.90
19878;DHT22;10101;52.204;9.910;2022-11-15T10:39:13;12.50;99.90
19878;DHT22;10101;52.204;9.910;2022-11-15T10:41:41;12.60;99.90
19878;DHT22;10101;52.204;9.910;2022-11-15T10:44:12;12.60;99.90
19878;DHT22;10101;52.204;9.910;2022-11-15T10:46:45;12.80;99.90
19878;DHT22;10101;52.204;9.910;2022-11-15T10:49:16;12.70;99.90
19878;DHT22;10101;52.204;9.910;2022-11-15T10:51:46;12.70;99.90
19878;DHT22;10101;52.204;9.910;2022-11-15T10:54:18;12.80;99.90
19878;DHT22;10101;52.204;9.910;2022-11-15T10:56:49;12.90;99.90
19878;DHT22;10101;52.204;9.910;2022-11-15T10:59:23;13.00;99.90
19878;DHT22;10101;52.204;9.910;2022-11-15T11:01:51;13.10;99.90
19878;DHT22;10101;52.204;9.910;2022-11-15T11:04:19;13.00;99.90
19878;DHT22;10101;52.204;9.910;2022-11-15T11:06:47;13.10;99.90
19878;DHT22;10101;52.204;9.910;2022-11-15T11:09:25;13.20;99.90
19878;DHT22;10101;52.204;9.910;2022-11-15T11:11:54;13.10;99.90
19878;DHT22;10101;52.204;9.910;2022-11-15T11:14:22;13.20;99.90
19878;DHT22;10101;52.204;9.910;2022-11-15T11:16:53;13.20;99.90
19878;DHT22;10101;52.204;9.910;2022-11-15T11:19:49;13.50;99.90
19878;DHT22;10101;52.204;9.910;2022-11-15T11:22:22;13.40;99.90
19878;DHT22;10101;52.204;9.910;2022-11-15T11:24:56;13.30;99.90
19878;DHT22;10101;52.204;9.910;2022-11-15T11:27:34;13.30;99.90
19878;DHT22;10101;52.204;9.910;2022-11-15T11:30:08;13.40;99.90
19878;DHT22;10101;52.204;9.910;2022-11-15T11:33:03;13.40;99.90
19878;DHT22;10101;52.204;9.910;2022-11-15T11:35:38;13.40;99.90
19878;DHT22;10101;52.204;9.910;2022-11-15T11:38:21;13.30;99.90
19878;DHT22;10101;52.204;9.910;2022-11-15T11:40:59;13.30;99.90
19878;DHT22;10101;52.204;9.910;2022-11-15T11:43:35;13.20;99.90
19878;DHT22;10101;52.204;9.910;2022-11-15T11:49:10;13.30;99.90
19878;DHT22;10101;52.204;9.910;2022-11-15T11:51:42;13.30;99.90
19878;DHT22;10101;52.204;9.910;2022-11-15T11:54:14;13.40;99.90
19878;DHT22;10101;52.204;9.910;2022-11-15T11:56:44;13.30;99.90
19878;DHT22;10101;52.204;9.910;2022-11-15T11:59:18;13.30;99.90
19878;DHT22;10101;52.204;9.910;2022-11-15T12:01:45;13.30;99.90
19878;DHT22;10101;52.204;9.910;2022-11-15T12:04:16;13.30;99.90
19878;DHT22;10101;52.204;9.910;2022-11-15T12:06:50;13.30;99.90
19878;DHT22;10101;52.204;9.910;2022-11-15T12:09:23;13.30;99.90
19878;DHT22;10101;52.204;9.910;2022-11-15T12:12:00;13.40;99.90
19878;DHT22;10101;52.204;9.910;2022-11-15T12:14:32;13.40;99.90
19878;DHT22;10101;52.204;9.910;2022-11-15T12:16:59;13.40;99.90
19878;DHT22;10101;52.204;9.910;2022-11-15T12:19:26;13.40;99.90
19878;DHT22;10101;52.204;9.910;2022-11-15T12:22:00;13.30;99.90
19878;DHT22;10101;52.204;9.910;2022-11-15T12:24:32;13.00;99.90
19878;DHT22;10101;52.204;9.910;2022-11-15T12:27:05;13.10;99.90
19878;DHT22;10101;52.204;9.910;2022-11-15T12:29:36;13.10;99.90
19878;DHT22;10101;52.204;9.910;2022-11-15T12:32:05;13.10;99.90
19878;DHT22;10101;52.204;9.910;2022-11-15T12:34:42;13.10;99.90
19878;DHT22;10101;52.204;9.910;2022-11-15T12:40:29;13.10;99.90
19878;DHT22;10101;52.204;9.910;2022-11-15T12:43:02;13.20;99.90
19878;DHT22;10101;52.204;9.910;2022-11-15T12:45:31;13.30;99.90
19878;DHT22;10101;52.204;9.910;2022-11-15T12:51:02;13.40;99.90
19878;DHT22;10101;52.204;9.910;2022-11-15T12:53:31;13.40;99.90
19878;DHT22;10101;52.204;9.910;2022-11-15T12:56:23;13.40;99.90
19878;DHT22;10101;52.204;9.910;2022-11-15T12:58:55;13.40;99.90
19878;DHT22;10101;52.204;9.910;2022-11-15T13:04:31;13.40;99.90
19878;DHT22;10101;52.204;9.910;2022-11-15T13:07:00;13.40;99.90
19878;DHT22;10101;52.204;9.910;2022-11-15T13:09:53;13.40;99.90
19878;DHT22;10101;52.204;9.910;2022-11-15T13:12:57;13.30;99.90
19878;DHT22;10101;52.204;9.910;2022-11-15T13:15:54;13.30;99.90
19878;DHT22;10101;52.204;9.910;2022-11-15T13:18:36;13.30;99.90
19878;DHT22;10101;52.204;9.910;2022-11-15T13:21:17;13.40;99.90
19878;DHT22;10101;52.204;9.910;2022-11-15T13:24:03;13.40;99.90
19878;DHT22;10101;52.204;9.910;2022-11-15T13:26:31;13.60;99.90
19878;DHT22;10101;52.204;9.910;2022-11-15T13:28:59;13.60;99.90
19878;DHT22;10101;52.204;9.910;2022-11-15T13:31:34;13.50;99.90
19878;DHT22;10101;52.204;9.910;2022-11-15T13:34:14;13.60;99.90
19878;DHT22;10101;52.204;9.910;2022-11-15T13:36:42;13.40;99.90
19878;DHT22;10101;52.204;9.910;2022-11-15T13:39:23;13.50;99.90
19878;DHT22;10101;52.204;9.910;2022-11-15T13:41:52;13.50;99.90
19878;DHT22;10101;52.204;9.910;2022-11-15T13:44:22;13.50;99.90
19878;DHT22;10101;52.204;9.910;2022-11-15T13:46:49;13.60;99.90
19878;DHT22;10101;52.204;9.910;2022-11-15T13:49:29;13.60;99.90
19878;DHT22;10101;52.204;9.910;2022-11-15T13:51:56;13.80;99.90
19878;DHT22;10101;52.204;9.910;2022-11-15T13:54:26;13.60;99.90
19878;DHT22;10101;52.204;9.910;2022-11-15T13:56:57;13.70;99.90
19878;DHT22;10101;52.204;9.910;2022-11-15T13:59:28;13.70;99.90
19878;DHT22;10101;52.204;9.910;2022-11-15T14:01:58;13.70;99.90
19878;DHT22;10101;52.204;9.910;2022-11-15T14:04:27;13.80;99.90
19878;DHT22;10101;52.204;9.910;2022-11-15T14:06:57;13.80;99.90
19878;DHT22;10101;52.204;9.910;2022-11-15T14:09:33;13.70;99.90
19878;DHT22;10101;52.204;9.910;2022-11-15T14:12:02;13.70;99.90
19878;DHT22;10101;52.204;9.910;2022-11-15T14:14:48;13.70;99.90
19878;DHT22;10101;52.204;9.910;2022-11-15T14:17:20;13.70;99.90
19878;DHT22;10101;52.204;9.910;2022-11-15T14:19:49;13.80;99.90
19878;DHT22;10101;52.204;9.910;2022-11-15T14:22:19;13.70;99.90
19878;DHT22;10101;52.204;9.910;2022-11-15T14:27:29;13.90;99.90
19878;DHT22;10101;52.204;9.910;2022-11-15T14:29:57;13.90;99.90
19878;DHT22;10101;52.204;9.910;2022-11-15T14:32:25;13.90;99.90
19878;DHT22;10101;52.204;9.910;2022-11-15T14:34:55;13.90;99.90
19878;DHT22;10101;52.204;9.910;2022-11-15T14:37:23;14.10;99.90
19878;DHT22;10101;52.204;9.910;2022-11-15T14:39:51;14.10;99.90
19878;DHT22;10101;52.204;9.910;2022-11-15T14:42:19;14.00;99.90
19878;DHT22;10101;52.204;9.910;2022-11-15T14:44:46;14.10;99.90
19878;DHT22;10101;52.204;9.910;2022-11-15T14:47:15;14.20;99.90
19878;DHT22;10101;52.204;9.910;2022-11-15T14:49:42;14.10;99.90
19878;DHT22;10101;52.204;9.910;2022-11-15T14:52:23;14.00;99.90
19878;DHT22;10101;52.204;9.910;2022-11-15T14:54:50;14.00;99.90
19878;DHT22;10101;52.204;9.910;2022-11-15T14:57:16;13.80;99.90
19878;DHT22;10101;52.204;9.910;2022-11-15T14:59:43;13.90;99.90
19878;DHT22;10101;52.204;9.910;2022-11-15T15:02:18;13.80;99.90
19878;DHT22;10101;52.204;9.910;2022-11-15T15:04:46;13.80;99.90
19878;DHT22;10101;52.204;9.910;2022-11-15T15:07:14;13.90;99.90
19878;DHT22;10101;52.204;9.910;2022-11-15T15:09:41;13.80;99.90
19878;DHT22;10101;52.204;9.910;2022-11-15T15:12:15;13.80;99.90
19878;DHT22;10101;52.204;9.910;2022-11-15T15:14:42;13.80;99.90
19878;DHT22;10101;52.204;9.910;2022-11-15T15:17:08;13.80;99.90
19878;DHT22;10101;52.204;9.910;2022-11-15T15:19:37;13.50;99.90
19878;DHT22;10101;52.204;9.910;2022-11-15T15:22:03;13.50;99.90
19878;DHT22;10101;52.204;9.910;2022-11-15T15:24:31;13.50;99.90
19878;DHT22;10101;52.204;9.910;2022-11-15T15:26:57;13.50;99.90
19878;DHT22;10101;52.204;9.910;2022-11-15T15:29:24;13.50;99.90
19878;DHT22;10101;52.204;9.910;2022-11-15T15:31:51;13.30;99.90
19878;DHT22;10101;52.204;9.910;2022-11-15T15:34:18;13.30;99.90
19878;DHT22;10101;52.204;9.910;2022-11-15T15:36:46;13.50;99.90
19878;DHT22;10101;52.204;9.910;2022-11-15T15:39:12;13.40;99.90
19878;DHT22;10101;52.204;9.910;2022-11-15T15:41:39;13.30;99.90
19878;DHT22;10101;52.204;9.910;2022-11-15T15:44:06;13.20;99.90
19878;DHT22;10101;52.204;9.910;2022-11-15T15:46:33;13.20;99.90
19878;DHT22;10101;52.204;9.910;2022-11-15T15:49:00;13.10;99.90
19878;DHT22;10101;52.204;9.910;2022-11-15T15:51:27;13.20;99.90
19878;DHT22;10101;52.204;9.910;2022-11-15T15:53:55;13.10;99.90
19878;DHT22;10101;52.204;9.910;2022-11-15T15:56:23;13.10;99.90
19878;DHT22;10101;52.204;9.910;2022-11-15T15:58:50;13.00;99.90
19878;DHT22;10101;52.204;9.910;2022-11-15T16:01:18;12.90;99.90
19878;DHT22;10101;52.204;9.910;2022-11-15T16:03:45;12.90;99.90
19878;DHT22;10101;52.204;9.910;2022-11-15T16:06:35;12.80;99.90
19878;DHT22;10101;52.204;9.910;2022-11-15T16:09:04;12.80;99.90
19878;DHT22;10101;52.204;9.910;2022-11-15T16:11:30;12.70;99.90
19878;DHT22;10101;52.204;9.910;2022-11-15T16:13:57;12.60;99.90
19878;DHT22;10101;52.204;9.910;2022-11-15T16:16:24;12.50;99.90